Terminal Aerodrome Forecast
Issued by NWS Rapid City, SD

Home | Current Version | Previous Version | Text Only | Print | Product List | Glossary Off
Versions: 1 2 3 4 5 6 7 8 9 10 11 12 13 14 15 16 17 18

000
FTUS43 KUNR 231100
TAFRAP
TAF
KRAP 231125Z 2312/2412 34028G38KT 3/4SM -SN BLSN OVC015
     FM231500 34024KT 3SM -SHSN BLSN BKN015
      TEMPO 2315/2318 1SM -SN BLSN
     FM232200 34018KT P6SM SCT200
     FM240400 VRB05KT P6SM SCT250=

USA.gov is the U.S. government's official web portal to all federal, state and local government web resources and services.